createdAt,value
2023-04-02T00:00:06.781Z,3.67
2023-04-02T00:02:35.285Z,3.80
2023-04-02T00:05:55.996Z,4.20
2023-04-02T00:08:27.752Z,3.63
2023-04-02T00:10:57.886Z,3.90
2023-04-02T00:13:34.182Z,4.40
2023-04-02T00:16:04.540Z,4.07
2023-04-02T00:18:34.410Z,4.37
2023-04-02T00:21:11.539Z,5.00
2023-04-02T00:23:42.036Z,4.17
2023-04-02T00:26:30.395Z,4.27
2023-04-02T00:29:00.788Z,4.03
2023-04-02T00:31:29.665Z,3.97
2023-04-02T00:33:59.699Z,4.17
2023-04-02T00:36:34.075Z,4.00
2023-04-02T00:39:08.886Z,4.43
2023-04-02T00:41:39.451Z,4.03
2023-04-02T00:44:13.803Z,3.90
2023-04-02T00:46:49.751Z,3.70
2023-04-02T00:49:26.256Z,4.43
2023-04-02T00:51:58.351Z,3.80
2023-04-02T00:54:32.356Z,4.17
2023-04-02T00:57:01.396Z,4.23
2023-04-02T00:59:33.004Z,3.93
2023-04-02T01:02:22.577Z,3.87
2023-04-02T01:04:55.363Z,3.87
2023-04-02T01:07:37.514Z,3.77
2023-04-02T01:10:37.427Z,3.90
2023-04-02T01:13:16.148Z,4.20
2023-04-02T01:15:52.322Z,3.50
2023-04-02T01:18:33.310Z,3.73
2023-04-02T01:21:16.334Z,4.10
2023-04-02T01:24:05.580Z,4.40
2023-04-02T01:26:48.077Z,4.40
2023-04-02T01:29:20.763Z,3.90
2023-04-02T01:31:50.781Z,4.13
2023-04-02T01:34:21.946Z,3.60
2023-04-02T01:37:03.832Z,3.43
2023-04-02T01:39:55.474Z,5.20
2023-04-02T01:42:30.615Z,4.20
2023-04-02T01:45:05.140Z,4.60
2023-04-02T01:47:34.125Z,4.13
2023-04-02T01:50:04.892Z,4.60
2023-04-02T01:52:40.773Z,5.33
2023-04-02T01:55:10.638Z,5.20
2023-04-02T01:57:39.095Z,4.80
2023-04-02T02:00:13.803Z,5.30
2023-04-02T02:02:43.797Z,4.67
2023-04-02T02:05:15.751Z,4.70
2023-04-02T02:07:44.774Z,4.43
2023-04-02T02:10:16.648Z,4.90
2023-04-02T02:12:46.162Z,4.97
2023-04-02T02:15:19.115Z,4.67
2023-04-02T02:17:47.941Z,4.43
2023-04-02T02:20:17.595Z,4.57
2023-04-02T02:22:48.437Z,4.07
2023-04-02T02:25:19.674Z,3.77
2023-04-02T02:27:55.158Z,3.87
2023-04-02T02:30:28.224Z,4.03
2023-04-02T02:33:02.209Z,3.80
2023-04-02T02:35:34.670Z,3.80
2023-04-02T02:38:40.055Z,4.10
2023-04-02T02:41:15.350Z,4.13
2023-04-02T02:43:49.928Z,3.77
2023-04-02T02:46:23.481Z,4.10
2023-04-02T02:48:54.547Z,4.00
2023-04-02T02:51:29.697Z,4.17
2023-04-02T02:54:02.547Z,4.20
2023-04-02T02:56:36.928Z,4.47
2023-04-02T02:59:08.264Z,4.13
2023-04-02T03:01:38.367Z,4.03
2023-04-02T03:04:06.861Z,4.27
2023-04-02T03:06:36.699Z,3.97
2023-04-02T03:09:14.215Z,4.17
2023-04-02T03:11:48.381Z,4.67
2023-04-02T03:14:24.518Z,4.47
2023-04-02T03:16:59.869Z,4.20
2023-04-02T03:19:33.892Z,4.97
2023-04-02T03:22:07.768Z,3.93
2023-04-02T03:24:39.424Z,4.27
2023-04-02T03:27:13.092Z,4.20
2023-04-02T03:29:44.891Z,4.50
2023-04-02T03:32:18.777Z,4.43
2023-04-02T03:34:50.949Z,4.80
2023-04-02T03:37:23.836Z,4.10
2023-04-02T03:39:58.327Z,4.37
2023-04-02T03:42:29.918Z,4.67
2023-04-02T03:45:01.409Z,4.47
2023-04-02T03:47:35.431Z,5.07
2023-04-02T03:50:08.190Z,4.43
2023-04-02T03:52:38.490Z,4.90
2023-04-02T03:55:16.149Z,4.43
2023-04-02T03:57:53.869Z,4.47
2023-04-02T04:00:27.231Z,4.60
2023-04-02T04:03:00.258Z,4.80
2023-04-02T04:05:31.993Z,4.83
2023-04-02T04:08:04.666Z,4.57
2023-04-02T04:10:33.978Z,5.23
2023-04-02T04:13:07.000Z,4.87
2023-04-02T04:15:40.178Z,5.00
2023-04-02T04:18:19.916Z,4.30
2023-04-02T04:20:56.696Z,5.00
2023-04-02T04:23:31.178Z,4.67
2023-04-02T04:26:05.634Z,4.50
2023-04-02T04:28:42.177Z,4.97
2023-04-02T04:31:21.155Z,4.43
2023-04-02T04:34:03.384Z,5.23
2023-04-02T04:36:36.945Z,4.90
2023-04-02T04:39:10.200Z,4.90
2023-04-02T04:41:40.476Z,5.00
2023-04-02T04:44:17.442Z,4.80
2023-04-02T04:46:50.919Z,4.47
2023-04-02T04:49:25.375Z,3.97
2023-04-02T04:51:57.508Z,4.50
2023-04-02T04:54:28.200Z,5.10
2023-04-02T04:57:00.993Z,4.73
2023-04-02T04:59:32.672Z,4.60
2023-04-02T05:02:06.168Z,4.50
2023-04-02T05:04:39.132Z,4.90
2023-04-02T05:07:11.613Z,5.10
2023-04-02T05:09:45.254Z,4.17
2023-04-02T05:12:22.947Z,4.77
2023-04-02T05:14:55.444Z,5.20
2023-04-02T05:17:29.541Z,5.20
2023-04-02T05:20:07.455Z,5.03
2023-04-02T05:22:41.400Z,4.43
2023-04-02T05:25:24.519Z,6.10
2023-04-02T05:27:59.234Z,6.60
2023-04-02T05:30:49.491Z,8.00
2023-04-02T05:33:25.763Z,7.80
2023-04-02T05:36:00.791Z,7.90
2023-04-02T05:38:31.569Z,8.07
2023-04-02T05:41:06.128Z,7.60
2023-04-02T05:43:36.900Z,7.27
2023-04-02T05:46:14.888Z,8.50
2023-04-02T05:48:45.213Z,10.90
2023-04-02T05:51:20.150Z,12.70
2023-04-02T05:53:50.770Z,15.13
2023-04-02T05:56:23.044Z,14.93
2023-04-02T05:58:54.135Z,13.13
2023-04-02T06:01:40.515Z,11.73
2023-04-02T06:04:17.520Z,11.57
2023-04-02T06:06:54.548Z,13.30
2023-04-02T06:09:30.041Z,10.57
2023-04-02T06:12:05.626Z,9.47
2023-04-02T06:14:34.160Z,10.63
2023-04-02T06:17:02.509Z,12.43
2023-04-02T06:19:34.780Z,14.40
2023-04-02T06:22:17.766Z,14.90
2023-04-02T06:24:48.654Z,13.10
2023-04-02T06:27:22.802Z,11.97
2023-04-02T06:29:55.697Z,10.97
2023-04-02T06:32:27.016Z,9.40
2023-04-02T06:34:55.910Z,9.67
2023-04-02T06:37:31.564Z,7.50
2023-04-02T06:40:01.656Z,6.70
2023-04-02T06:42:35.069Z,6.27
2023-04-02T06:45:03.543Z,6.33
2023-04-02T06:47:35.529Z,6.27
2023-04-02T06:50:09.888Z,6.00
2023-04-02T06:52:46.039Z,6.20
2023-04-02T06:55:33.171Z,6.23
2023-04-02T06:58:01.904Z,6.43
2023-04-02T07:00:36.306Z,7.10
2023-04-02T07:03:08.247Z,6.87
2023-04-02T07:05:36.928Z,6.93
2023-04-02T07:08:07.955Z,8.27
2023-04-02T07:10:36.397Z,9.83
2023-04-02T07:13:05.958Z,9.87
2023-04-02T07:15:34.691Z,10.43
2023-04-02T07:18:03.435Z,11.23
2023-04-02T07:20:34.155Z,16.77
2023-04-02T07:23:02.512Z,23.83
2023-04-02T07:25:32.366Z,26.40
2023-04-02T07:28:01.629Z,24.83
2023-04-02T07:30:29.917Z,23.27
2023-04-02T07:32:58.423Z,18.93
2023-04-02T07:38:12.467Z,18.43
2023-04-02T07:40:42.970Z,20.17
2023-04-02T07:43:15.320Z,17.90
2023-04-02T07:45:44.623Z,16.23
2023-04-02T07:48:18.057Z,16.03
2023-04-02T07:50:46.518Z,13.83
2023-04-02T07:53:30.037Z,15.00
2023-04-02T07:56:03.178Z,13.90
2023-04-02T07:59:37.448Z,12.57
2023-04-02T08:01:29.995Z,12.80
2023-04-02T08:04:39.797Z,12.93
2023-04-02T08:11:12.546Z,10.73
2023-04-02T08:13:42.045Z,9.70
2023-04-02T08:16:22.021Z,8.47
2023-04-02T08:18:50.635Z,8.30
2023-04-02T08:21:28.370Z,7.93
2023-04-02T08:23:56.927Z,8.00
2023-04-02T08:26:26.705Z,7.47
2023-04-02T08:41:42.236Z,6.78
2023-04-02T08:51:42.922Z,7.78
2023-04-02T09:03:51.429Z,7.97
2023-04-02T09:06:22.280Z,8.13
2023-04-02T09:09:00.504Z,8.38
2023-04-02T09:11:36.268Z,6.70
2023-04-02T09:14:15.517Z,4.53
2023-04-02T09:23:31.864Z,2.45
2023-04-02T09:26:04.525Z,2.20
2023-04-02T09:28:46.422Z,2.10
2023-04-02T09:31:28.711Z,2.45
2023-04-02T09:33:58.033Z,2.15
2023-04-02T09:36:37.220Z,5.05
2023-04-02T09:42:05.001Z,3.70
2023-04-02T09:44:34.967Z,3.35
2023-04-02T09:47:08.815Z,5.63
2023-04-02T09:50:01.899Z,4.18
2023-04-02T09:52:34.067Z,3.45
2023-04-02T09:55:22.054Z,4.03
2023-04-02T09:58:08.284Z,5.97
2023-04-02T10:00:36.958Z,4.32
2023-04-02T10:03:24.297Z,3.17
2023-04-02T10:06:09.110Z,3.92
2023-04-02T10:08:39.051Z,3.20
2023-04-02T10:11:11.481Z,3.08
2023-04-02T10:17:13.773Z,2.58
2023-04-02T10:27:10.780Z,2.20
2023-04-02T10:38:16.513Z,2.13
2023-04-02T10:45:24.867Z,2.30
2023-04-02T10:59:12.429Z,2.30
2023-04-02T11:01:43.888Z,2.30
2023-04-02T11:04:21.211Z,2.40
2023-04-02T11:07:14.860Z,2.13
2023-04-02T11:10:13.701Z,2.55
2023-04-02T11:12:52.826Z,1.92
2023-04-02T11:15:31.691Z,2.20
2023-04-02T11:18:05.668Z,1.60
2023-04-02T11:24:52.092Z,1.70
2023-04-02T11:31:04.839Z,1.35
2023-04-02T11:33:56.104Z,1.55
2023-04-02T11:37:33.348Z,1.50
2023-04-02T11:44:02.302Z,1.52
2023-04-02T13:37:11.143Z,2.00
2023-04-02T13:40:04.260Z,2.92
2023-04-02T13:43:09.567Z,2.58
2023-04-02T13:45:46.028Z,2.75
2023-04-02T13:48:30.230Z,2.40
2023-04-02T13:51:11.592Z,2.95
2023-04-02T13:54:17.140Z,3.20
2023-04-02T13:59:54.830Z,1.70
2023-04-02T14:02:43.918Z,1.80
2023-04-02T14:05:33.575Z,4.50
2023-04-02T14:50:00.509Z,1.63
2023-04-02T14:52:34.690Z,2.30
2023-04-02T14:55:07.295Z,2.47
2023-04-02T14:57:39.740Z,2.58
2023-04-02T15:00:20.621Z,1.90
2023-04-02T15:02:54.364Z,1.50
2023-04-02T15:11:54.355Z,0.80
2023-04-02T15:16:48.239Z,0.77
2023-04-02T15:22:48.732Z,1.00
2023-04-02T15:25:52.937Z,0.82
2023-04-02T15:28:34.308Z,0.70
2023-04-02T15:31:08.318Z,0.90
2023-04-02T15:37:52.573Z,1.98
2023-04-02T15:55:28.474Z,1.30
2023-04-02T16:12:10.625Z,2.75
2023-04-02T16:15:06.591Z,2.85
2023-04-02T16:17:57.510Z,1.80
2023-04-02T16:20:48.538Z,2.58
2023-04-02T16:27:48.169Z,3.47
2023-04-02T16:38:09.246Z,15.13
2023-04-02T16:41:25.593Z,33.45
2023-04-02T16:52:14.467Z,17.98
2023-04-02T16:55:35.260Z,11.63
2023-04-02T17:02:19.321Z,5.25
2023-04-02T17:12:49.317Z,4.32
2023-04-02T17:16:00.710Z,4.20
2023-04-02T17:19:04.700Z,5.47
2023-04-02T17:26:14.654Z,4.30
2023-04-02T17:29:07.910Z,4.93
2023-04-02T17:32:43.276Z,3.40
2023-04-02T17:35:30.588Z,2.20
2023-04-02T17:38:12.854Z,1.80
2023-04-02T17:40:50.724Z,1.50
2023-04-02T18:09:49.641Z,6.70
2023-04-02T18:20:40.679Z,9.20
2023-04-02T18:25:12.570Z,25.35
2023-04-02T18:27:54.256Z,22.90
2023-04-02T18:30:54.599Z,18.50
2023-04-02T18:44:48.908Z,22.03
2023-04-02T18:47:26.377Z,36.70
2023-04-02T18:50:06.715Z,46.77
2023-04-02T18:52:36.295Z,51.87
2023-04-02T18:55:09.235Z,38.17
2023-04-02T18:57:42.298Z,28.90
2023-04-02T19:00:23.415Z,19.90
2023-04-02T19:02:58.636Z,13.07
2023-04-02T19:05:34.228Z,11.07
2023-04-02T19:08:09.766Z,11.33
2023-04-02T19:10:40.034Z,10.03
2023-04-02T19:13:14.509Z,12.67
2023-04-02T19:16:13.605Z,18.73
2023-04-02T19:18:57.647Z,15.63
2023-04-02T19:21:34.644Z,11.30
2023-04-02T19:24:17.460Z,8.77
2023-04-02T19:26:53.176Z,6.40
2023-04-02T19:29:31.722Z,10.10
2023-04-02T19:32:08.093Z,12.33
2023-04-02T19:34:41.682Z,12.07
2023-04-02T19:37:18.163Z,10.00
2023-04-02T19:40:11.716Z,11.33
2023-04-02T19:42:48.078Z,11.17
2023-04-02T19:45:29.727Z,10.27
2023-04-02T19:48:00.568Z,12.33
2023-04-02T19:50:30.700Z,15.13
2023-04-02T19:52:59.133Z,14.67
2023-04-02T19:55:28.914Z,11.10
2023-04-02T19:58:04.454Z,10.03
2023-04-02T20:00:46.031Z,10.30
2023-04-02T20:03:14.613Z,11.20
2023-04-02T20:05:44.416Z,12.63
2023-04-02T20:08:13.455Z,8.90
2023-04-02T20:10:42.741Z,6.73
2023-04-02T20:13:11.288Z,6.63
2023-04-02T20:15:41.731Z,5.67
2023-04-02T20:18:11.201Z,5.17
2023-04-02T20:20:40.346Z,5.30
2023-04-02T20:23:10.979Z,5.77
2023-04-02T20:25:40.078Z,7.53
2023-04-02T20:28:08.463Z,6.60
2023-04-02T20:30:38.261Z,5.57
2023-04-02T20:33:06.942Z,5.30
2023-04-02T20:35:35.806Z,7.27
2023-04-02T20:38:06.628Z,6.40
2023-04-02T20:40:36.849Z,6.30
2023-04-02T20:43:05.532Z,7.60
2023-04-02T20:45:33.902Z,6.50
2023-04-02T20:48:02.231Z,5.23
2023-04-02T20:50:30.934Z,4.57
2023-04-02T20:52:59.874Z,3.97
2023-04-02T20:55:28.273Z,4.00
2023-04-02T20:57:57.923Z,5.93
2023-04-02T21:00:26.253Z,5.83
2023-04-02T21:02:54.807Z,5.50
2023-04-02T21:05:23.261Z,4.53
2023-04-02T21:07:51.639Z,4.00
2023-04-02T21:10:21.704Z,3.20
2023-04-02T21:12:50.518Z,2.87
2023-04-02T21:15:20.690Z,2.70
2023-04-02T21:17:49.154Z,2.90
2023-04-02T21:20:17.714Z,2.70
2023-04-02T21:22:46.089Z,3.37
2023-04-02T21:25:14.422Z,3.43
2023-04-02T21:27:42.688Z,2.90
2023-04-02T21:30:12.280Z,2.93
2023-04-02T21:32:42.091Z,3.20
2023-04-02T21:35:10.802Z,3.20
2023-04-02T21:37:39.519Z,3.53
2023-04-02T21:40:09.688Z,3.80
2023-04-02T21:42:38.601Z,4.20
2023-04-02T21:45:08.599Z,4.07
2023-04-02T21:47:36.914Z,3.93
2023-04-02T21:50:08.658Z,3.13
2023-04-02T21:52:37.110Z,3.20
2023-04-02T21:55:06.079Z,2.90
2023-04-02T21:57:34.388Z,2.97
2023-04-02T22:00:08.156Z,3.07
2023-04-02T22:02:36.446Z,3.27
2023-04-02T22:05:06.980Z,3.20
2023-04-02T22:07:35.203Z,3.03
2023-04-02T22:10:03.681Z,3.37
2023-04-02T22:12:31.873Z,3.50
2023-04-02T22:15:00.149Z,3.07
2023-04-02T22:17:28.435Z,3.33
2023-04-02T22:19:56.680Z,3.87
2023-04-02T22:22:26.311Z,3.47
2023-04-02T22:24:56.277Z,3.50
2023-04-02T22:27:24.562Z,3.93
2023-04-02T22:29:52.826Z,3.30
2023-04-02T22:32:21.130Z,3.20
2023-04-02T22:34:49.748Z,3.00
2023-04-02T22:37:18.004Z,3.63
2023-04-02T22:39:47.607Z,3.10
2023-04-02T22:42:15.838Z,2.93
2023-04-02T22:44:44.082Z,3.10
2023-04-02T22:47:12.340Z,3.10
2023-04-02T22:49:40.560Z,3.20
2023-04-02T22:52:09.129Z,2.70
2023-04-02T22:54:37.465Z,2.20
2023-04-02T22:57:07.216Z,2.47
2023-04-02T22:59:35.472Z,2.57
2023-04-02T23:02:03.869Z,2.20
2023-04-02T23:04:32.148Z,1.70
2023-04-02T23:07:00.372Z,1.90
2023-04-02T23:09:28.784Z,2.60
2023-04-02T23:11:56.996Z,3.40
2023-04-02T23:14:26.704Z,3.70
2023-04-02T23:16:54.947Z,3.33
2023-04-02T23:19:23.153Z,2.80
2023-04-02T23:21:51.717Z,3.03
2023-04-02T23:24:19.971Z,3.27
2023-04-02T23:26:48.243Z,3.07
2023-04-02T23:29:16.550Z,2.97
2023-04-02T23:31:46.780Z,2.50
2023-04-02T23:34:15.187Z,2.40
2023-04-02T23:36:43.574Z,2.30
2023-04-02T23:39:13.525Z,2.27
2023-04-02T23:41:43.112Z,2.30
2023-04-02T23:44:11.682Z,1.93
2023-04-02T23:46:39.979Z,2.30
2023-04-02T23:49:12.955Z,2.63
2023-04-02T23:51:41.508Z,2.40
2023-04-02T23:54:09.778Z,2.20
2023-04-02T23:56:38.060Z,2.20
2023-04-02T23:59:06.450Z,2.40
